sensor_id;sensor_type;location;lat;lon;timestamp;pressure;altitude;pressure_sealevel;temperature;humidity
73103;BME280;61294;65.988;29.172;2023-04-06T00:01:50;100000.84;;;-5.55;81.60
73103;BME280;61294;65.988;29.172;2023-04-06T00:04:16;99993.97;;;-5.76;80.75
73103;BME280;61294;65.988;29.172;2023-04-06T00:06:42;100007.56;;;-5.77;81.23
73103;BME280;61294;65.988;29.172;2023-04-06T00:09:08;100005.28;;;-5.74;81.48
73103;BME280;61294;65.988;29.172;2023-04-06T00:11:34;100005.41;;;-5.73;81.06
73103;BME280;61294;65.988;29.172;2023-04-06T00:14:00;99993.84;;;-5.78;81.26
73103;BME280;61294;65.988;29.172;2023-04-06T00:16:26;100004.75;;;-5.80;81.30
73103;BME280;61294;65.988;29.172;2023-04-06T00:18:51;100006.06;;;-5.85;81.13
73103;BME280;61294;65.988;29.172;2023-04-06T00:21:17;99999.81;;;-5.99;81.03
73103;BME280;61294;65.988;29.172;2023-04-06T00:23:43;99982.66;;;-6.11;81.29
73103;BME280;61294;65.988;29.172;2023-04-06T00:26:09;100008.16;;;-6.02;81.26
73103;BME280;61294;65.988;29.172;2023-04-06T00:28:37;100005.72;;;-6.00;81.41
73103;BME280;61294;65.988;29.172;2023-04-06T00:31:03;99999.97;;;-6.08;80.80
73103;BME280;61294;65.988;29.172;2023-04-06T00:33:29;100000.25;;;-6.15;80.91
73103;BME280;61294;65.988;29.172;2023-04-06T00:35:55;100006.00;;;-6.18;80.36
73103;BME280;61294;65.988;29.172;2023-04-06T00:38:21;99987.41;;;-6.26;80.63
73103;BME280;61294;65.988;29.172;2023-04-06T00:40:47;100011.03;;;-6.30;80.45
73103;BME280;61294;65.988;29.172;2023-04-06T00:43:13;99996.41;;;-6.41;80.35
73103;BME280;61294;65.988;29.172;2023-04-06T00:45:40;100011.50;;;-6.44;80.25
73103;BME280;61294;65.988;29.172;2023-04-06T00:48:07;100003.94;;;-6.63;80.55
73103;BME280;61294;65.988;29.172;2023-04-06T00:50:34;100019.81;;;-6.67;80.63
73103;BME280;61294;65.988;29.172;2023-04-06T00:53:00;100004.69;;;-6.74;80.90
73103;BME280;61294;65.988;29.172;2023-04-06T00:55:29;100018.53;;;-6.72;80.93
73103;BME280;61294;65.988;29.172;2023-04-06T00:57:59;100011.34;;;-6.77;81.04
73103;BME280;61294;65.988;29.172;2023-04-06T01:00:29;100007.47;;;-6.92;80.88
73103;BME280;61294;65.988;29.172;2023-04-06T01:02:55;99997.34;;;-7.01;81.46
73103;BME280;61294;65.988;29.172;2023-04-06T01:05:21;100008.47;;;-7.00;81.46
73103;BME280;61294;65.988;29.172;2023-04-06T01:07:47;100011.03;;;-7.00;81.63
73103;BME280;61294;65.988;29.172;2023-04-06T01:10:23;100008.97;;;-7.04;81.37
73103;BME280;61294;65.988;29.172;2023-04-06T01:12:49;99990.63;;;-7.19;81.26
73103;BME280;61294;65.988;29.172;2023-04-06T01:15:14;100007.03;;;-7.07;81.07
73103;BME280;61294;65.988;29.172;2023-04-06T01:17:40;100007.03;;;-7.07;80.59
73103;BME280;61294;65.988;29.172;2023-04-06T01:20:07;100009.06;;;-7.13;80.25
73103;BME280;61294;65.988;29.172;2023-04-06T01:22:33;100007.00;;;-7.17;80.72
73103;BME280;61294;65.988;29.172;2023-04-06T01:24:58;99983.09;;;-7.47;80.55
73103;BME280;61294;65.988;29.172;2023-04-06T01:27:24;100011.81;;;-7.41;81.40
73103;BME280;61294;65.988;29.172;2023-04-06T01:29:51;100000.97;;;-7.57;81.09
73103;BME280;61294;65.988;29.172;2023-04-06T01:32:17;100006.16;;;-7.66;81.95
73103;BME280;61294;65.988;29.172;2023-04-06T01:34:43;100005.78;;;-7.71;82.36
73103;BME280;61294;65.988;29.172;2023-04-06T01:37:09;100006.03;;;-7.68;82.60
73103;BME280;61294;65.988;29.172;2023-04-06T01:39:35;100013.63;;;-7.59;82.12
73103;BME280;61294;65.988;29.172;2023-04-06T01:42:01;100005.69;;;-7.62;82.14
73103;BME280;61294;65.988;29.172;2023-04-06T01:44:27;100000.00;;;-7.68;82.08
73103;BME280;61294;65.988;29.172;2023-04-06T01:46:55;100002.06;;;-7.64;81.75
73103;BME280;61294;65.988;29.172;2023-04-06T01:49:22;100008.09;;;-7.64;81.67
73103;BME280;61294;65.988;29.172;2023-04-06T01:51:48;100009.34;;;-7.69;81.88
73103;BME280;61294;65.988;29.172;2023-04-06T01:54:13;99991.38;;;-7.79;82.19
73103;BME280;61294;65.988;29.172;2023-04-06T01:56:39;100012.75;;;-7.78;82.55
73103;BME280;61294;65.988;29.172;2023-04-06T01:59:06;100004.47;;;-7.95;82.87
73103;BME280;61294;65.988;29.172;2023-04-06T02:01:32;100018.00;;;-7.96;83.03
73103;BME280;61294;65.988;29.172;2023-04-06T02:03:57;100006.38;;;-7.92;82.66
73103;BME280;61294;65.988;29.172;2023-04-06T02:06:23;100019.84;;;-8.04;82.30
73103;BME280;61294;65.988;29.172;2023-04-06T02:08:49;100014.00;;;-8.22;82.77
73103;BME280;61294;65.988;29.172;2023-04-06T02:11:15;100018.78;;;-8.16;82.84
73103;BME280;61294;65.988;29.172;2023-04-06T02:13:41;100011.84;;;-8.17;82.60
73103;BME280;61294;65.988;29.172;2023-04-06T02:16:06;100016.63;;;-8.30;82.78
73103;BME280;61294;65.988;29.172;2023-04-06T02:18:32;100009.22;;;-8.27;82.37
73103;BME280;61294;65.988;29.172;2023-04-06T02:20:58;100013.59;;;-8.26;82.72
73103;BME280;61294;65.988;29.172;2023-04-06T02:23:24;100015.50;;;-8.24;82.88
73103;BME280;61294;65.988;29.172;2023-04-06T02:25:50;100022.81;;;-8.37;82.69
73103;BME280;61294;65.988;29.172;2023-04-06T02:28:16;100022.25;;;-8.43;82.89
73103;BME280;61294;65.988;29.172;2023-04-06T02:30:42;100024.13;;;-8.51;82.97
73103;BME280;61294;65.988;29.172;2023-04-06T02:33:07;100021.06;;;-8.66;82.99
73103;BME280;61294;65.988;29.172;2023-04-06T02:35:33;100026.47;;;-8.63;83.26
73103;BME280;61294;65.988;29.172;2023-04-06T02:37:59;100030.34;;;-8.58;82.79
73103;BME280;61294;65.988;29.172;2023-04-06T02:40:25;100026.53;;;-8.53;82.71
73103;BME280;61294;65.988;29.172;2023-04-06T02:42:51;100025.94;;;-8.50;82.64
73103;BME280;61294;65.988;29.172;2023-04-06T02:45:17;100028.22;;;-8.53;82.33
73103;BME280;61294;65.988;29.172;2023-04-06T02:47:43;100030.50;;;-8.56;82.92
73103;BME280;61294;65.988;29.172;2023-04-06T02:50:09;100027.41;;;-8.71;82.99
73103;BME280;61294;65.988;29.172;2023-04-06T02:52:35;99989.47;;;-8.86;82.97
73103;BME280;61294;65.988;29.172;2023-04-06T02:55:01;99977.47;;;-8.95;82.13
73103;BME280;61294;65.988;29.172;2023-04-06T02:57:27;100026.56;;;-8.89;82.81
73103;BME280;61294;65.988;29.172;2023-04-06T02:59:53;100019.50;;;-8.83;82.62
73103;BME280;61294;65.988;29.172;2023-04-06T03:02:18;99991.91;;;-8.96;82.54
73103;BME280;61294;65.988;29.172;2023-04-06T03:04:44;100031.81;;;-8.79;83.16
73103;BME280;61294;65.988;29.172;2023-04-06T03:07:10;100033.94;;;-8.92;83.04
73103;BME280;61294;65.988;29.172;2023-04-06T03:09:37;100007.59;;;-9.10;83.20
73103;BME280;61294;65.988;29.172;2023-04-06T03:12:04;100028.63;;;-9.13;82.78
73103;BME280;61294;65.988;29.172;2023-04-06T03:14:29;100028.72;;;-9.03;83.43
73103;BME280;61294;65.988;29.172;2023-04-06T03:16:55;100021.16;;;-8.92;83.14
73103;BME280;61294;65.988;29.172;2023-04-06T03:19:21;100022.38;;;-8.89;82.71
73103;BME280;61294;65.988;29.172;2023-04-06T03:21:47;100024.31;;;-8.86;82.42
73103;BME280;61294;65.988;29.172;2023-04-06T03:24:13;100021.13;;;-8.83;82.75
73103;BME280;61294;65.988;29.172;2023-04-06T03:26:39;100030.94;;;-8.88;82.31
73103;BME280;61294;65.988;29.172;2023-04-06T03:29:05;100029.56;;;-8.85;82.18
73103;BME280;61294;65.988;29.172;2023-04-06T03:31:31;100032.44;;;-8.90;81.65
73103;BME280;61294;65.988;29.172;2023-04-06T03:33:57;100028.84;;;-8.92;81.21
73103;BME280;61294;65.988;29.172;2023-04-06T03:36:23;100024.03;;;-8.98;81.25
73103;BME280;61294;65.988;29.172;2023-04-06T03:38:48;100030.69;;;-9.00;81.28
73103;BME280;61294;65.988;29.172;2023-04-06T03:41:14;100029.16;;;-8.98;81.40
73103;BME280;61294;65.988;29.172;2023-04-06T03:43:40;100036.81;;;-8.98;80.69
73103;BME280;61294;65.988;29.172;2023-04-06T03:46:06;100039.50;;;-8.96;80.72
73103;BME280;61294;65.988;29.172;2023-04-06T03:48:32;100032.81;;;-9.05;80.45
73103;BME280;61294;65.988;29.172;2023-04-06T03:51:00;100024.69;;;-9.09;80.51
73103;BME280;61294;65.988;29.172;2023-04-06T03:53:26;100030.44;;;-9.12;80.05
73103;BME280;61294;65.988;29.172;2023-04-06T03:55:52;100033.22;;;-9.00;80.01
73103;BME280;61294;65.988;29.172;2023-04-06T03:58:17;100037.59;;;-8.99;79.52
73103;BME280;61294;65.988;29.172;2023-04-06T04:00:43;100037.28;;;-9.02;79.86
73103;BME280;61294;65.988;29.172;2023-04-06T04:03:09;100038.81;;;-9.04;79.78
73103;BME280;61294;65.988;29.172;2023-04-06T04:05:35;100042.69;;;-9.08;79.13
73103;BME280;61294;65.988;29.172;2023-04-06T04:08:01;99984.66;;;-9.28;78.67
73103;BME280;61294;65.988;29.172;2023-04-06T04:10:27;100044.94;;;-9.02;78.91
73103;BME280;61294;65.988;29.172;2023-04-06T04:12:53;100039.22;;;-8.99;79.10
73103;BME280;61294;65.988;29.172;2023-04-06T04:15:19;100040.16;;;-8.99;79.30
73103;BME280;61294;65.988;29.172;2023-04-06T04:17:44;100041.47;;;-8.94;79.15
73103;BME280;61294;65.988;29.172;2023-04-06T04:20:12;100038.16;;;-8.93;78.92
73103;BME280;61294;65.988;29.172;2023-04-06T04:22:40;100033.09;;;-9.02;78.50
73103;BME280;61294;65.988;29.172;2023-04-06T04:25:06;100041.78;;;-8.99;78.62
73103;BME280;61294;65.988;29.172;2023-04-06T04:27:32;100037.88;;;-8.96;78.93
73103;BME280;61294;65.988;29.172;2023-04-06T04:29:57;100047.44;;;-8.85;78.59
73103;BME280;61294;65.988;29.172;2023-04-06T04:32:23;100045.31;;;-8.80;77.94
73103;BME280;61294;65.988;29.172;2023-04-06T04:34:53;100047.72;;;-8.81;78.21
73103;BME280;61294;65.988;29.172;2023-04-06T04:37:19;100052.56;;;-8.85;77.95
73103;BME280;61294;65.988;29.172;2023-04-06T04:39:45;100052.09;;;-8.89;78.04
73103;BME280;61294;65.988;29.172;2023-04-06T04:42:11;100033.94;;;-8.92;78.29
73103;BME280;61294;65.988;29.172;2023-04-06T04:44:37;100050.44;;;-8.80;78.36
73103;BME280;61294;65.988;29.172;2023-04-06T04:47:03;100049.22;;;-8.75;77.70
73103;BME280;61294;65.988;29.172;2023-04-06T04:49:29;100051.44;;;-8.69;77.78
73103;BME280;61294;65.988;29.172;2023-04-06T04:51:54;100053.03;;;-8.61;77.77
73103;BME280;61294;65.988;29.172;2023-04-06T04:54:20;100026.09;;;-8.76;78.47
73103;BME280;61294;65.988;29.172;2023-04-06T04:56:46;100027.72;;;-8.77;78.99
73103;BME280;61294;65.988;29.172;2023-04-06T04:59:12;100032.50;;;-8.71;78.89
73103;BME280;61294;65.988;29.172;2023-04-06T05:01:38;100049.13;;;-8.57;78.86
73103;BME280;61294;65.988;29.172;2023-04-06T05:04:04;100030.97;;;-8.60;79.12
73103;BME280;61294;65.988;29.172;2023-04-06T05:06:29;100040.38;;;-8.51;79.61
73103;BME280;61294;65.988;29.172;2023-04-06T05:08:55;100040.16;;;-8.43;79.62
73103;BME280;61294;65.988;29.172;2023-04-06T05:11:21;100032.44;;;-8.35;79.74
73103;BME280;61294;65.988;29.172;2023-04-06T05:13:47;100060.56;;;-8.16;80.80
73103;BME280;61294;65.988;29.172;2023-04-06T05:16:13;100051.41;;;-8.13;81.04
73103;BME280;61294;65.988;29.172;2023-04-06T05:18:39;100044.13;;;-8.09;81.01
73103;BME280;61294;65.988;29.172;2023-04-06T05:21:05;100052.94;;;-7.96;81.65
73103;BME280;61294;65.988;29.172;2023-04-06T05:23:31;100057.31;;;-7.85;81.56
73103;BME280;61294;65.988;29.172;2023-04-06T05:25:57;100057.63;;;-7.82;81.21
73103;BME280;61294;65.988;29.172;2023-04-06T05:28:23;100046.72;;;-7.71;81.72
73103;BME280;61294;65.988;29.172;2023-04-06T05:30:49;100053.25;;;-7.64;81.93
73103;BME280;61294;65.988;29.172;2023-04-06T05:33:15;100054.13;;;-7.44;82.15
73103;BME280;61294;65.988;29.172;2023-04-06T05:35:41;100048.78;;;-7.37;82.01
73103;BME280;61294;65.988;29.172;2023-04-06T05:38:08;100053.16;;;-7.36;82.03
73103;BME280;61294;65.988;29.172;2023-04-06T05:40:36;100048.94;;;-7.36;82.16
73103;BME280;61294;65.988;29.172;2023-04-06T05:43:03;100052.81;;;-7.31;81.88
73103;BME280;61294;65.988;29.172;2023-04-06T05:45:30;100047.97;;;-7.17;82.20
73103;BME280;61294;65.988;29.172;2023-04-06T05:47:55;100053.38;;;-7.14;82.35
73103;BME280;61294;65.988;29.172;2023-04-06T05:50:21;100005.44;;;-7.25;82.39
73103;BME280;61294;65.988;29.172;2023-04-06T05:52:48;100046.41;;;-6.96;82.01
73103;BME280;61294;65.988;29.172;2023-04-06T05:55:14;100041.03;;;-6.89;81.90
73103;BME280;61294;65.988;29.172;2023-04-06T05:57:39;100008.53;;;-6.80;82.51
73103;BME280;61294;65.988;29.172;2023-04-06T06:00:06;100033.31;;;-6.49;82.33
73103;BME280;61294;65.988;29.172;2023-04-06T06:02:35;100017.53;;;-6.54;81.70
73103;BME280;61294;65.988;29.172;2023-04-06T06:05:01;100026.25;;;-6.42;81.92
73103;BME280;61294;65.988;29.172;2023-04-06T06:07:27;100026.66;;;-6.27;81.94
73103;BME280;61294;65.988;29.172;2023-04-06T06:09:56;100018.06;;;-5.64;82.05
73103;BME280;61294;65.988;29.172;2023-04-06T06:12:23;100032.41;;;-5.45;80.73
73103;BME280;61294;65.988;29.172;2023-04-06T06:14:49;100025.72;;;-5.43;80.37
73103;BME280;61294;65.988;29.172;2023-04-06T06:17:15;100038.25;;;-5.26;79.66
73103;BME280;61294;65.988;29.172;2023-04-06T06:19:41;100033.88;;;-5.27;79.73
73103;BME280;61294;65.988;29.172;2023-04-06T06:22:06;100031.19;;;-4.96;79.70
73103;BME280;61294;65.988;29.172;2023-04-06T06:24:32;100024.53;;;-4.82;78.43
73103;BME280;61294;65.988;29.172;2023-04-06T06:26:58;100037.50;;;-4.80;77.95
73103;BME280;61294;65.988;29.172;2023-04-06T06:29:24;100033.44;;;-4.44;77.40
73103;BME280;61294;65.988;29.172;2023-04-06T06:31:50;100035.00;;;-4.46;76.95
73103;BME280;61294;65.988;29.172;2023-04-06T06:34:15;100033.03;;;-4.39;76.82
73103;BME280;61294;65.988;29.172;2023-04-06T06:36:41;100030.13;;;-4.31;76.07
73103;BME280;61294;65.988;29.172;2023-04-06T06:39:07;100035.50;;;-4.28;75.90
73103;BME280;61294;65.988;29.172;2023-04-06T06:41:33;100047.00;;;-4.01;75.62
73103;BME280;61294;65.988;29.172;2023-04-06T06:43:59;100033.44;;;-4.10;74.78
73103;BME280;61294;65.988;29.172;2023-04-06T06:46:25;100046.78;;;-3.92;74.95
73103;BME280;61294;65.988;29.172;2023-04-06T06:48:51;100037.63;;;-3.77;74.39
73103;BME280;61294;65.988;29.172;2023-04-06T06:51:16;100044.16;;;-3.70;73.45
73103;BME280;61294;65.988;29.172;2023-04-06T06:53:42;100039.56;;;-3.51;72.89
73103;BME280;61294;65.988;29.172;2023-04-06T06:56:08;100038.75;;;-3.38;72.62
73103;BME280;61294;65.988;29.172;2023-04-06T06:58:34;100036.22;;;-3.26;71.92
73103;BME280;61294;65.988;29.172;2023-04-06T07:00:59;100033.59;;;-3.14;71.28
73103;BME280;61294;65.988;29.172;2023-04-06T07:03:25;100029.44;;;-3.00;70.47
73103;BME280;61294;65.988;29.172;2023-04-06T07:05:52;100038.16;;;-2.86;70.10
73103;BME280;61294;65.988;29.172;2023-04-06T07:08:21;100042.03;;;-2.68;69.12
73103;BME280;61294;65.988;29.172;2023-04-06T07:10:48;100031.38;;;-2.72;68.59
73103;BME280;61294;65.988;29.172;2023-04-06T07:13:14;99999.66;;;-2.71;68.23
73103;BME280;61294;65.988;29.172;2023-04-06T07:15:47;100036.94;;;-2.54;68.31
73103;BME280;61294;65.988;29.172;2023-04-06T07:18:13;100039.72;;;-2.51;68.26
73103;BME280;61294;65.988;29.172;2023-04-06T07:20:39;100013.56;;;-2.69;68.36
73103;BME280;61294;65.988;29.172;2023-04-06T07:23:05;100040.31;;;-2.30;67.41
73103;BME280;61294;65.988;29.172;2023-04-06T07:25:31;100003.22;;;-2.19;66.17
73103;BME280;61294;65.988;29.172;2023-04-06T07:27:57;100030.78;;;-2.06;65.94
73103;BME280;61294;65.988;29.172;2023-04-06T07:30:23;100007.03;;;-2.00;65.90
73103;BME280;61294;65.988;29.172;2023-04-06T07:32:51;100030.16;;;-1.63;65.36
73103;BME280;61294;65.988;29.172;2023-04-06T07:35:17;100034.63;;;-1.61;64.63
73103;BME280;61294;65.988;29.172;2023-04-06T07:37:43;100026.19;;;-1.58;63.84
73103;BME280;61294;65.988;29.172;2023-04-06T07:40:09;100031.56;;;-1.28;63.47
73103;BME280;61294;65.988;29.172;2023-04-06T07:42:35;100029.56;;;-1.19;63.06
73103;BME280;61294;65.988;29.172;2023-04-06T07:45:01;100036.31;;;-1.08;62.26
73103;BME280;61294;65.988;29.172;2023-04-06T07:47:27;100034.50;;;-0.82;61.15
73103;BME280;61294;65.988;29.172;2023-04-06T07:49:54;100007.78;;;-0.67;60.09
73103;BME280;61294;65.988;29.172;2023-04-06T07:52:21;100029.06;;;-0.58;59.56
73103;BME280;61294;65.988;29.172;2023-04-06T07:54:47;100026.47;;;-0.58;59.23
73103;BME280;61294;65.988;29.172;2023-04-06T07:57:14;100031.56;;;-0.60;60.44
73103;BME280;61294;65.988;29.172;2023-04-06T07:59:40;100018.91;;;-0.55;60.25
73103;BME280;61294;65.988;29.172;2023-04-06T08:02:06;100016.53;;;-0.65;61.45
73103;BME280;61294;65.988;29.172;2023-04-06T08:04:32;100032.91;;;-0.52;60.38
73103;BME280;61294;65.988;29.172;2023-04-06T08:06:58;100026.53;;;0.00;58.49
73103;BME280;61294;65.988;29.172;2023-04-06T08:09:24;100034.91;;;0.11;59.19
73103;BME280;61294;65.988;29.172;2023-04-06T08:11:50;100027.69;;;0.50;57.14
73103;BME280;61294;65.988;29.172;2023-04-06T08:14:16;100035.63;;;0.68;57.43
73103;BME280;61294;65.988;29.172;2023-04-06T08:16:42;100032.56;;;1.07;55.10
73103;BME280;61294;65.988;29.172;2023-04-06T08:19:08;100032.47;;;1.36;54.62
73103;BME280;61294;65.988;29.172;2023-04-06T08:21:35;100025.03;;;1.59;54.66
73103;BME280;61294;65.988;29.172;2023-04-06T08:24:02;100027.16;;;1.83;52.90
73103;BME280;61294;65.988;29.172;2023-04-06T08:26:28;100026.72;;;1.92;53.44
73103;BME280;61294;65.988;29.172;2023-04-06T08:28:54;100024.94;;;2.07;53.80
73103;BME280;61294;65.988;29.172;2023-04-06T08:31:21;100019.81;;;2.09;54.15
73103;BME280;61294;65.988;29.172;2023-04-06T08:33:47;100009.56;;;2.12;53.96
73103;BME280;61294;65.988;29.172;2023-04-06T08:36:14;100013.88;;;2.64;48.50
73103;BME280;61294;65.988;29.172;2023-04-06T08:38:42;100023.16;;;2.94;48.07
73103;BME280;61294;65.988;29.172;2023-04-06T08:41:13;100015.72;;;3.02;50.54
73103;BME280;61294;65.988;29.172;2023-04-06T08:43:44;100011.22;;;3.18;47.12
73103;BME280;61294;65.988;29.172;2023-04-06T08:46:13;100022.66;;;3.59;48.12
73103;BME280;61294;65.988;29.172;2023-04-06T08:48:40;100013.66;;;3.72;46.33
73103;BME280;61294;65.988;29.172;2023-04-06T08:51:11;100019.75;;;3.92;45.90
73103;BME280;61294;65.988;29.172;2023-04-06T08:53:38;100010.28;;;4.13;46.63
73103;BME280;61294;65.988;29.172;2023-04-06T08:56:05;100019.00;;;4.14;47.34
73103;BME280;61294;65.988;29.172;2023-04-06T08:58:40;99992.03;;;4.35;43.48
73103;BME280;61294;65.988;29.172;2023-04-06T09:01:09;100012.03;;;4.99;44.48
73103;BME280;61294;65.988;29.172;2023-04-06T09:03:39;99996.22;;;5.41;45.08
73103;BME280;61294;65.988;29.172;2023-04-06T09:06:06;100008.03;;;6.52;41.77
73103;BME280;61294;65.988;29.172;2023-04-06T09:08:38;99995.56;;;11.91;35.08
73103;BME280;61294;65.988;29.172;2023-04-06T09:11:06;99985.50;;;17.12;28.26
73103;BME280;61294;65.988;29.172;2023-04-06T09:13:51;99980.59;;;19.31;23.57
73103;BME280;61294;65.988;29.172;2023-04-06T09:16:17;99979.59;;;20.61;22.47
73103;BME280;61294;65.988;29.172;2023-04-06T09:18:44;99986.88;;;20.92;20.59
73103;BME280;61294;65.988;29.172;2023-04-06T09:21:11;99981.78;;;21.48;20.00
73103;BME280;61294;65.988;29.172;2023-04-06T09:23:38;99977.63;;;21.05;19.14
73103;BME280;61294;65.988;29.172;2023-04-06T09:29:04;99986.34;;;22.08;19.00
73103;BME280;61294;65.988;29.172;2023-04-06T09:31:31;99971.41;;;22.27;18.59
73103;BME280;61294;65.988;29.172;2023-04-06T09:34:01;99980.16;;;23.41;15.68
73103;BME280;61294;65.988;29.172;2023-04-06T09:39:02;99981.38;;;24.28;17.01
73103;BME280;61294;65.988;29.172;2023-04-06T09:41:34;99981.16;;;22.60;17.34
73103;BME280;61294;65.988;29.172;2023-04-06T09:44:06;99976.34;;;22.69;17.05
73103;BME280;61294;65.988;29.172;2023-04-06T09:46:40;99973.69;;;23.21;17.54
73103;BME280;61294;65.988;29.172;2023-04-06T09:49:07;99965.72;;;23.43;15.59
73103;BME280;61294;65.988;29.172;2023-04-06T09:51:39;99968.31;;;23.21;16.34
73103;BME280;61294;65.988;29.172;2023-04-06T09:54:06;99963.22;;;25.60;16.78
73103;BME280;61294;65.988;29.172;2023-04-06T10:01:58;99960.13;;;26.63;14.33
73103;BME280;61294;65.988;29.172;2023-04-06T10:07:23;99974.69;;;23.93;16.80
73103;BME280;61294;65.988;29.172;2023-04-06T10:09:50;99969.31;;;23.68;16.50
73103;BME280;61294;65.988;29.172;2023-04-06T10:12:17;99964.75;;;22.67;15.53
73103;BME280;61294;65.988;29.172;2023-04-06T10:14:43;99962.03;;;20.86;18.17
73103;BME280;61294;65.988;29.172;2023-04-06T10:17:10;99969.41;;;16.14;21.59
73103;BME280;61294;65.988;29.172;2023-04-06T10:22:08;99968.81;;;13.74;24.99
73103;BME280;61294;65.988;29.172;2023-04-06T10:24:36;99967.81;;;15.79;22.75
73103;BME280;61294;65.988;29.172;2023-04-06T10:27:03;99971.66;;;17.58;21.24
73103;BME280;61294;65.988;29.172;2023-04-06T10:29:49;99963.34;;;22.27;18.34
73103;BME280;61294;65.988;29.172;2023-04-06T10:32:15;99957.88;;;22.30;17.26
73103;BME280;61294;65.988;29.172;2023-04-06T10:34:41;99962.44;;;25.17;15.85
73103;BME280;61294;65.988;29.172;2023-04-06T10:37:14;99961.38;;;23.65;16.24
73103;BME280;61294;65.988;29.172;2023-04-06T10:39:56;99957.94;;;24.75;16.16
73103;BME280;61294;65.988;29.172;2023-04-06T10:42:25;99964.78;;;24.17;15.85
73103;BME280;61294;65.988;29.172;2023-04-06T10:45:01;99958.25;;;23.75;16.53
73103;BME280;61294;65.988;29.172;2023-04-06T10:47:39;99964.56;;;25.90;15.09
73103;BME280;61294;65.988;29.172;2023-04-06T10:50:05;99967.06;;;24.26;14.96
73103;BME280;61294;65.988;29.172;2023-04-06T10:52:31;99953.31;;;24.78;14.68
73103;BME280;61294;65.988;29.172;2023-04-06T10:54:58;99954.50;;;24.49;15.27
73103;BME280;61294;65.988;29.172;2023-04-06T10:57:28;99956.66;;;23.95;15.03
73103;BME280;61294;65.988;29.172;2023-04-06T10:59:56;99952.44;;;24.34;16.36
73103;BME280;61294;65.988;29.172;2023-04-06T11:02:22;99956.56;;;24.20;14.10
73103;BME280;61294;65.988;29.172;2023-04-06T11:04:55;99953.94;;;23.71;16.79
73103;BME280;61294;65.988;29.172;2023-04-06T11:07:28;99954.78;;;28.32;15.56
73103;BME280;61294;65.988;29.172;2023-04-06T11:09:56;99955.50;;;27.37;13.70
73103;BME280;61294;65.988;29.172;2023-04-06T11:12:26;99948.72;;;25.42;14.41
73103;BME280;61294;65.988;29.172;2023-04-06T11:15:01;99946.91;;;26.94;14.19
73103;BME280;61294;65.988;29.172;2023-04-06T11:17:31;99934.13;;;27.48;14.48
73103;BME280;61294;65.988;29.172;2023-04-06T11:19:57;99938.22;;;30.02;13.59
73103;BME280;61294;65.988;29.172;2023-04-06T11:22:24;99939.84;;;28.09;13.54
73103;BME280;61294;65.988;29.172;2023-04-06T11:24:50;99948.56;;;27.98;13.76
73103;BME280;61294;65.988;29.172;2023-04-06T11:27:17;99944.03;;;28.15;13.63
73103;BME280;61294;65.988;29.172;2023-04-06T11:29:43;99942.00;;;26.65;13.54
73103;BME280;61294;65.988;29.172;2023-04-06T11:32:11;99930.72;;;26.21;13.90
73103;BME280;61294;65.988;29.172;2023-04-06T11:34:39;99948.72;;;28.27;14.81
73103;BME280;61294;65.988;29.172;2023-04-06T11:37:11;99939.72;;;28.42;12.56
73103;BME280;61294;65.988;29.172;2023-04-06T11:39:39;99948.47;;;28.00;15.18
73103;BME280;61294;65.988;29.172;2023-04-06T11:42:06;99946.84;;;25.84;13.77
73103;BME280;61294;65.988;29.172;2023-04-06T11:44:44;99940.03;;;26.69;14.68
73103;BME280;61294;65.988;29.172;2023-04-06T11:47:14;99934.44;;;26.18;14.73
73103;BME280;61294;65.988;29.172;2023-04-06T11:49:42;99934.31;;;25.43;13.96
73103;BME280;61294;65.988;29.172;2023-04-06T11:52:19;99948.00;;;25.39;13.90
73103;BME280;61294;65.988;29.172;2023-04-06T11:54:47;99937.81;;;27.30;13.34
73103;BME280;61294;65.988;29.172;2023-04-06T11:57:13;99944.25;;;27.27;16.32
73103;BME280;61294;65.988;29.172;2023-04-06T11:59:40;99939.88;;;25.59;14.63
73103;BME280;61294;65.988;29.172;2023-04-06T12:02:06;99936.47;;;26.68;14.66
73103;BME280;61294;65.988;29.172;2023-04-06T12:04:31;99936.03;;;27.96;15.25
73103;BME280;61294;65.988;29.172;2023-04-06T12:06:58;99932.84;;;26.50;13.71
73103;BME280;61294;65.988;29.172;2023-04-06T12:09:24;99934.31;;;26.02;14.99
73103;BME280;61294;65.988;29.172;2023-04-06T12:11:49;99929.94;;;27.92;15.84
73103;BME280;61294;65.988;29.172;2023-04-06T12:14:15;99920.16;;;27.23;15.62
73103;BME280;61294;65.988;29.172;2023-04-06T12:16:41;99913.16;;;28.17;14.17
73103;BME280;61294;65.988;29.172;2023-04-06T12:19:07;99917.44;;;27.40;12.88
73103;BME280;61294;65.988;29.172;2023-04-06T12:21:36;99922.59;;;25.44;16.67
73103;BME280;61294;65.988;29.172;2023-04-06T12:24:03;99921.34;;;25.32;14.43
73103;BME280;61294;65.988;29.172;2023-04-06T12:26:30;99913.59;;;26.76;14.28
73103;BME280;61294;65.988;29.172;2023-04-06T12:28:56;99918.00;;;27.63;15.20
73103;BME280;61294;65.988;29.172;2023-04-06T12:31:22;99913.13;;;26.12;13.54
73103;BME280;61294;65.988;29.172;2023-04-06T12:33:51;99915.06;;;27.83;16.41
73103;BME280;61294;65.988;29.172;2023-04-06T12:36:19;99913.66;;;28.40;16.70
73103;BME280;61294;65.988;29.172;2023-04-06T12:38:47;99908.22;;;27.60;15.38
73103;BME280;61294;65.988;29.172;2023-04-06T12:41:13;99902.75;;;26.93;14.11
73103;BME280;61294;65.988;29.172;2023-04-06T12:43:42;99908.88;;;27.14;16.08
73103;BME280;61294;65.988;29.172;2023-04-06T12:46:08;99915.22;;;25.27;15.89
73103;BME280;61294;65.988;29.172;2023-04-06T12:48:34;99902.91;;;25.22;15.70
73103;BME280;61294;65.988;29.172;2023-04-06T12:51:05;99910.63;;;25.50;15.96
73103;BME280;61294;65.988;29.172;2023-04-06T12:53:31;99898.66;;;25.16;14.30
73103;BME280;61294;65.988;29.172;2023-04-06T12:55:57;99904.28;;;26.27;17.56
73103;BME280;61294;65.988;29.172;2023-04-06T12:58:24;99903.88;;;25.98;15.35
73103;BME280;61294;65.988;29.172;2023-04-06T13:00:55;99897.19;;;27.14;15.45